METAR Data
IDs: Format: Raw Decoded Include TAF

Data at: 2308 UTC 10 May 2021

KEGE 102256Z 23017G27KT 9SM -RA FEW048 SCT060 BKN075 08/01 A3000 RMK AO2 PK WND 22027/2252 RAB53 SLP156 T00780006 PNO $
KEGE 102156Z 24018G22KT 10SM BKN045 OVC060 11/00 A2999 RMK AO2 SLP144 T01060000 PNO $
KEGE 102056Z 24013G19KT 10SM FEW030 SCT046 BKN055 10/00 A2999 RMK AO2 RAE01 SLP147 6//// T01000000 58008 PNO $
KEGE 101956Z 25011KT 10SM -RA BKN065 08/02 A3001 RMK AO2 SLP155 T00830017 PNO $
KEGE 101948Z 24013G18KT 10SM -RA FEW022 BKN065 08/02 A3001 RMK AO2 PNO $
KEGE 101923Z 28012KT 10SM -RA SCT022 BKN027 OVC042 08/02 A3002 RMK AO2 PNO $
KEGE 101856Z 26006KT 10SM -RA SCT018 BKN041 BKN060 07/02 A3002 RMK AO2 SLP163 T00720017 PNO $
KEGE 101756Z 09006KT 10SM -RA FEW010 OVC060 06/03 A3005 RMK AO2 SLP169 6//// T00560033 10056 20011 55004 PNO $
KEGE 101752Z 09007KT 10SM -RA FEW006 OVC060 05/03 A3004 RMK AO2 PNO $
KEGE 101724Z 08008KT 10SM -RA FEW006 BKN013 OVC044 04/03 A3005 RMK AO2 PNO $
KEGE 101707Z 07007KT 10SM -RA BKN012 BKN016 OVC031 03/02 A3005 RMK AO2 PNO $
KEGE 101656Z 08006KT 10SM -RA SCT016 OVC031 03/02 A3005 RMK AO2 SLP178 T00330017 PNO $
KEGE 101625Z 08005KT 10SM -RA FEW006 OVC025 03/02 A3006 RMK AO2 PNO $
KEGE 101556Z 09005KT 10SM -RA SCT011 OVC025 02/02 A3006 RMK AO2 SLP180 T00220017 PNO $
KEGE 101456Z 08007KT 7SM -RA SCT008 SCT015 OVC020 01/01 A3006 RMK AO2 RAE06B56UPB06E08B52E56SNB08E52 SLP179 6//// T00110006 50002 PNO $
KEGE 101356Z 17004KT 8SM -RA OVC008 02/01 A3007 RMK AO2 SLP180 T00220006 PNO $
KEGE 101341Z 16005KT 10SM -RA BKN008 OVC013 02/01 A3006 RMK AO2 PNO $
KEGE 101317Z 00000KT 10SM -RA BKN013 OVC022 03/01 A3006 RMK AO2 PNO $
KEGE 101256Z 00000KT 9SM -RA FEW013 OVC024 03/01 A3005 RMK AO2 RAB05 SLP165 T00330011 PNO $
KEGE 101212Z AUTO 00000KT 10SM -RA BKN029 BKN037 OVC080 04/01 A3004 RMK AO2 RAB05 PNO $
KEGE 101156Z AUTO 00000KT 10SM SCT029 BKN080 OVC095 04/01 A3004 RMK AO2 SLP156 6//// 7//// T00440011 10072 20039 58006 PNO $
KEGE 101131Z AUTO 00000KT 10SM FEW026 OVC070 04/01 A3004 RMK AO2 PNO $
KEGE 101115Z AUTO 31003KT 10SM BKN026 OVC075 04/01 A3004 RMK AO2 PNO $
KEGE 101056Z AUTO 29004KT 10SM FEW026 BKN070 OVC080 04/01 A3005 RMK AO2 SLP161 T00390011 PNO $
KEGE 100956Z AUTO 27004KT 10SM SCT031 BKN043 OVC060 04/01 A3005 RMK AO2 RAE34 SLP162 T00390011 PNO $
KEGE 100856Z AUTO 29005KT 10SM -RA OVC055 04/01 A3006 RMK AO2 RAB50 SLP162 6//// T00440011 58003 PNO $
KEGE 100756Z AUTO 28005KT 10SM BKN048 OVC100 04/02 A3006 RMK AO2 SLP160 T00440017 PNO $
KEGE 100656Z AUTO 00000KT 10SM FEW021 BKN031 OVC038 04/02 A3007 RMK AO2 RAB19E56 SLP166 T00440017 PNO $
KEGE 100556Z AUTO 15009KT 10SM FEW040 OVC085 07/M02 A3007 RMK AO2 SLP164 6//// T00721017 10122 20072 401391006 53010 PNO $
KEGE 100456Z AUTO 18003KT 10SM SCT090 BKN110 08/M03 A3004 RMK AO2 SLP154 T00781033 PNO $
KEGE 100356Z AUTO 03005KT 10SM BKN090 BKN110 08/M04 A3004 RMK AO2 SLP157 T00831039 PNO $
KEGE 100256Z AUTO 36004KT 10SM OVC080 09/M04 A3003 RMK AO2 SLP156 6//// T00941044 53010 PNO $
KEGE 100156Z AUTO 20012KT 10SM OVC090 10/M06 A3001 RMK AO2 SLP156 T01001056 PNO $
KEGE 100056Z 25009KT 10SM SCT060 BKN075 OVC090 12/M07 A3000 RMK AO2 SLP156 T01171067 PNO $
KEGE 092356Z 21011G18KT 10SM FEW075 BKN090 12/M08 A3000 RMK AO2 SLP154 6//// T01221083 10139 20111 53002 PNO $
KEGE 092256Z 24015G23KT 10SM FEW070 SCT110 13/M08 A2999 RMK AO2 PK WND 21026/2217 SLP146 T01281083 PNO $
KEGE 092156Z 23021G28KT 10SM OVC085 13/M09 A2999 RMK AO2 PK WND 23028/2153 SLP141 T01281089 PNO $
KEGE 092056Z 25012G23KT 10SM FEW080 BKN100 13/M11 A2999 RMK AO2 PK WND 30029/2038 SLP140 6//// T01281106 56012 PNO $
KEGE 091956Z 25018G24KT 10SM OVC095 14/M12 A3000 RMK AO2 SLP136 T01391122 PNO $
KEGE 091856Z 23012KT 10SM BKN100 13/M14 A3001 RMK AO2 SLP140 T01281144 PNO $
KEGE 091756Z 00000KT 10SM FEW100 11/M13 A3003 RMK AO2 SLP148 6//// T01111128 10117 21006 58019 PNO $
KEGE 091656Z 32005KT 10SM FEW100 11/M12 A3006 RMK AO2 SLP157 T01061117 PNO $
KEGE 091556Z 00000KT 10SM CLR 08/M12 A3008 RMK AO2 SLP169 T00831122 PNO $
KEGE 091456Z VRB03KT 10SM CLR 07/M11 A3010 RMK AO2 SLP177 6//// T00721106 58000 PNO $
KEGE 091356Z 00000KT 10SM CLR 03/M08 A3012 RMK AO2 SLP189 T00281083 PNO $
KEGE 091256Z AUTO 00000KT 10SM CLR 01/M08 A3012 RMK AO2 SLP194 T00061083 FZRANO PNO $
KEGE 091156Z AUTO 00000KT 10SM CLR M01/M08 A3010 RMK AO2 SLP183 6//// 7//// T10061078 10083 21006 53012 FZRANO PNO $